Time;durP1;ratioP1;P1;durP2;ratioP2;P2;SDS_P1;SDS_P2;PMS_P1;PMS_P2;Temp;Humidity;BMP_temperature;BMP_pressure;BME280_temperature;BME280_humidity;BME280_pressure;Samples;Min_cycle;Max_cycle;Signal;HPM_P1;HPM_P2
2022/06/09 00:00:37;;;;;;;4.78;3.00;;;19.50;64.80;;;;;;5054988;28;20175;-73
2022/06/09 00:03:08;;;;;;;4.60;3.33;;;19.50;64.80;;;;;;5053598;28;20227;-72
2022/06/09 00:05:33;;;;;;;4.13;3.20;;;19.50;64.70;;;;;;5054209;28;20175;-73
2022/06/09 00:08:01;;;;;;;5.07;3.38;;;19.50;64.80;;;;;;5053319;28;20221;-74
2022/06/09 00:10:30;;;;;;;4.18;3.05;;;19.50;64.80;;;;;;5052968;28;20191;-76
2022/06/09 00:12:55;;;;;;;2.90;2.60;;;19.50;64.80;;;;;;5053264;28;20641;-75
2022/06/09 00:15:21;;;;;;;4.60;2.90;;;19.50;64.70;;;;;;5053488;28;20306;-75
2022/06/09 00:17:46;;;;;;;4.80;2.90;;;19.50;64.70;;;;;;5053801;28;20298;-74
2022/06/09 00:20:13;;;;;;;4.82;2.80;;;19.50;64.70;;;;;;5054431;28;20229;-75
2022/06/09 00:22:39;;;;;;;3.55;2.40;;;19.50;64.70;;;;;;5054065;28;20658;-74
2022/06/09 00:25:05;;;;;;;7.50;3.30;;;19.50;64.70;;;;;;5053698;28;20262;-74
2022/06/09 00:27:30;;;;;;;4.82;3.05;;;19.50;64.70;;;;;;5053172;28;20210;-76
2022/06/09 00:29:56;;;;;;;6.53;3.05;;;19.50;64.80;;;;;;5054174;28;20199;-74
2022/06/09 00:32:21;;;;;;;5.45;3.20;;;19.50;64.70;;;;;;5053966;28;20198;-73
2022/06/09 00:34:47;;;;;;;5.13;2.70;;;19.50;64.70;;;;;;5054126;28;20540;-73
2022/06/09 00:37:12;;;;;;;4.03;2.70;;;19.50;64.70;;;;;;5054381;28;20677;-73
2022/06/09 00:39:38;;;;;;;4.30;2.85;;;19.40;64.60;;;;;;5053376;28;20182;-73
2022/06/09 00:42:05;;;;;;;4.25;2.40;;;19.40;64.70;;;;;;5054354;28;20168;-74
2022/06/09 00:44:30;;;;;;;4.63;3.13;;;19.40;64.60;;;;;;5054302;28;20183;-74
2022/06/09 00:47:05;;;;;;;5.40;2.45;;;19.40;64.60;;;;;;5053170;28;20704;-75
2022/06/09 00:49:42;;;;;;;3.28;2.60;;;19.40;64.60;;;;;;5054132;28;20197;-76
2022/06/09 00:52:08;;;;;;;6.38;2.88;;;19.40;64.60;;;;;;5053008;28;20241;-76
2022/06/09 00:54:34;;;;;;;3.50;2.38;;;19.40;64.60;;;;;;5053107;28;20682;-75
2022/06/09 00:57:07;;;;;;;4.30;2.55;;;19.40;64.60;;;;;;5053936;28;20175;-74
2022/06/09 00:59:34;;;;;;;5.10;2.75;;;19.40;64.60;;;;;;5053876;28;20246;-73
2022/06/09 01:02:00;;;;;;;5.25;2.83;;;19.40;64.60;;;;;;5051738;28;20225;-72
2022/06/09 01:04:26;;;;;;;5.32;2.88;;;19.40;64.60;;;;;;5053779;28;20190;-73
2022/06/09 01:06:58;;;;;;;8.45;3.63;;;19.40;64.60;;;;;;5051864;28;20175;-73
2022/06/09 01:09:25;;;;;;;3.50;2.60;;;19.40;64.70;;;;;;5052680;28;20262;-76
2022/06/09 01:11:52;;;;;;;4.45;2.45;;;19.40;64.70;;;;;;5053443;28;20175;-74
2022/06/09 01:14:20;;;;;;;6.78;2.88;;;19.40;64.60;;;;;;5052937;28;20257;-74
2022/06/09 01:17:16;;;;;;;3.08;2.20;;;19.40;64.60;;;;;;5051865;28;20293;-74
2022/06/09 01:20:24;;;;;;;4.35;2.85;;;19.30;64.60;;;;;;5051850;28;20619;-74
2022/06/09 01:23:18;;;;;;;6.07;2.78;;;19.40;64.70;;;;;;5050886;28;20642;-74
2022/06/09 01:25:57;;;;;;;4.38;2.42;;;19.40;64.60;;;;;;5053200;28;20167;-74
2022/06/09 01:28:45;;;;;;;3.92;2.15;;;19.40;64.60;;;;;;5051627;28;20178;-75
2022/06/09 01:31:31;;;;;;;3.90;2.40;;;19.40;64.50;;;;;;5052045;28;20183;-74
2022/06/09 01:34:14;;;;;;;4.75;2.08;;;19.30;64.50;;;;;;5041508;28;20240;-74
2022/06/09 01:36:55;;;;;;;5.63;2.78;;;19.40;64.60;;;;;;5051118;28;20178;-73
2022/06/09 01:39:27;;;;;;;5.85;2.60;;;19.30;64.70;;;;;;5051942;28;20631;-74
2022/06/09 01:41:53;;;;;;;4.45;2.33;;;19.30;64.60;;;;;;5051949;28;20175;-74
2022/06/09 01:44:18;;;;;;;3.22;2.20;;;19.30;64.60;;;;;;5052978;28;20198;-74
2022/06/09 01:46:46;;;;;;;4.20;2.40;;;19.40;64.70;;;;;;5051574;28;20175;-74
2022/06/09 01:49:25;;;;;;;4.28;2.67;;;19.30;64.60;;;;;;5052329;28;20276;-76
2022/06/09 01:51:51;;;;;;;3.72;2.20;;;19.30;64.60;;;;;;5051301;28;20190;-76
2022/06/09 01:54:26;;;;;;;3.90;2.60;;;19.30;64.70;;;;;;5051526;28;20313;-76
2022/06/09 01:56:57;;;;;;;7.18;2.38;;;19.30;64.60;;;;;;5050484;28;20713;-74
2022/06/09 01:59:28;;;;;;;4.88;2.67;;;19.30;65.50;;;;;;5051638;28;20210;-73
2022/06/09 02:01:56;;;;;;;6.55;2.70;;;19.30;64.70;;;;;;5050973;28;20257;-72
2022/06/09 02:04:24;;;;;;;3.83;2.22;;;19.30;64.60;;;;;;5050682;28;20190;-75
2022/06/09 02:06:50;;;;;;;4.28;2.22;;;19.30;64.70;;;;;;5050551;28;20182;-73
2022/06/09 02:09:16;;;;;;;3.33;2.33;;;19.30;65.50;;;;;;5051421;28;20174;-75
2022/06/09 02:11:53;;;;;;;6.97;2.22;;;19.30;64.60;;;;;;5051657;28;20254;-75
2022/06/09 02:14:18;;;;;;;3.97;2.30;;;19.30;64.70;;;;;;5052500;28;20260;-74
2022/06/09 02:16:44;;;;;;;5.25;2.10;;;19.30;64.70;;;;;;5050923;28;20599;-74
2022/06/09 02:19:09;;;;;;;6.28;3.10;;;19.30;64.70;;;;;;5051574;28;20250;-75
2022/06/09 02:21:35;;;;;;;4.63;2.35;;;19.30;64.70;;;;;;5052381;28;20186;-74
2022/06/09 02:24:01;;;;;;;7.63;2.90;;;19.20;64.50;;;;;;5050748;28;20168;-75
2022/06/09 02:26:26;;;;;;;6.45;2.65;;;19.30;64.60;;;;;;5052094;28;20606;-75
2022/06/09 02:28:52;;;;;;;4.60;2.20;;;19.30;64.60;;;;;;5051920;28;20248;-75
2022/06/09 02:31:18;;;;;;;5.10;2.45;;;19.20;64.50;;;;;;5051471;28;20207;-75
2022/06/09 02:33:44;;;;;;;5.25;2.47;;;19.20;64.50;;;;;;5051863;28;20181;-73
2022/06/09 02:36:10;;;;;;;4.90;2.60;;;19.20;64.40;;;;;;5052021;28;20319;-73
2022/06/09 02:38:35;;;;;;;3.00;2.35;;;19.20;64.50;;;;;;5051054;28;20640;-74
2022/06/09 02:41:01;;;;;;;7.75;2.50;;;19.20;64.40;;;;;;5052187;28;20179;-73
2022/06/09 02:43:26;;;;;;;5.07;2.40;;;19.20;64.50;;;;;;5052003;28;20510;-75
2022/06/09 02:45:53;;;;;;;5.68;2.50;;;19.20;64.40;;;;;;5051073;28;20508;-74
2022/06/09 02:48:18;;;;;;;5.82;2.42;;;19.20;64.40;;;;;;5052023;28;20224;-75
2022/06/09 02:50:44;;;;;;;3.95;2.45;;;19.20;64.40;;;;;;5051619;28;20266;-75
2022/06/09 02:53:09;;;;;;;4.22;2.15;;;19.20;64.40;;;;;;5051221;28;20268;-76
2022/06/09 02:55:35;;;;;;;6.25;2.60;;;19.20;64.40;;;;;;5051650;28;20806;-75
2022/06/09 02:58:01;;;;;;;5.18;2.25;;;19.20;64.30;;;;;;5051663;28;20175;-74
2022/06/09 03:00:26;;;;;;;4.25;2.17;;;19.20;64.30;;;;;;5051238;28;20179;-73
2022/06/09 03:03:00;;;;;;;5.55;2.35;;;19.20;64.40;;;;;;5051323;28;20739;-72
2022/06/09 03:05:26;;;;;;;5.43;2.35;;;19.20;64.40;;;;;;5051783;28;20187;-73
2022/06/09 03:07:51;;;;;;;3.63;2.22;;;19.20;64.40;;;;;;5051008;28;20224;-74
2022/06/09 03:10:17;;;;;;;4.30;2.40;;;19.20;64.40;;;;;;5052142;28;20534;-75
2022/06/09 03:12:43;;;;;;;4.70;2.20;;;19.20;64.50;;;;;;5051470;28;20544;-74
2022/06/09 03:15:10;;;;;;;3.40;2.00;;;19.10;64.40;;;;;;5050976;28;20222;-75
2022/06/09 03:17:36;;;;;;;7.63;2.58;;;19.10;64.40;;;;;;5051487;28;20175;-75
2022/06/09 03:20:03;;;;;;;3.70;2.00;;;19.20;64.40;;;;;;5054807;28;20232;-74
2022/06/09 03:22:30;;;;;;;4.38;2.17;;;19.10;65.30;;;;;;5055189;28;20179;-74
2022/06/09 03:24:55;;;;;;;4.07;2.25;;;19.10;64.40;;;;;;5055533;28;20661;-74
2022/06/09 03:27:21;;;;;;;5.90;2.58;;;19.20;64.40;;;;;;5055018;28;20179;-74
2022/06/09 03:29:47;;;;;;;3.55;2.17;;;19.10;64.30;;;;;;5055411;28;20535;-75
2022/06/09 03:32:12;;;;;;;6.07;2.20;;;19.10;64.40;;;;;;5055515;28;20630;-75
2022/06/09 03:34:38;;;;;;;5.03;2.45;;;19.10;64.40;;;;;;5054711;28;20273;-75
2022/06/09 03:37:03;;;;;;;5.43;2.25;;;19.10;64.40;;;;;;5055556;28;20171;-74
2022/06/09 03:39:29;;;;;;;5.60;2.30;;;19.20;64.40;;;;;;5055413;28;20648;-74
2022/06/09 03:41:54;;;;;;;6.15;2.00;;;19.10;64.40;;;;;;5054367;28;20219;-74
2022/06/09 03:44:20;;;;;;;3.53;1.83;;;19.10;64.40;;;;;;5055357;28;20250;-75
2022/06/09 03:46:45;;;;;;;5.15;2.05;;;19.10;64.40;;;;;;5054936;28;20171;-74
2022/06/09 03:49:11;;;;;;;3.72;1.85;;;19.10;64.40;;;;;;5054512;28;20175;-76
2022/06/09 03:51:37;;;;;;;4.20;2.08;;;19.10;64.40;;;;;;5055001;28;20231;-76
2022/06/09 03:54:02;;;;;;;4.55;2.42;;;19.10;64.30;;;;;;5055192;28;20183;-76
2022/06/09 03:56:28;;;;;;;4.53;2.17;;;19.10;64.30;;;;;;5054502;28;20621;-75
2022/06/09 03:58:54;;;;;;;6.22;2.17;;;19.10;64.30;;;;;;5054769;28;20981;-74
2022/06/09 04:01:19;;;;;;;4.05;1.80;;;19.10;64.30;;;;;;5054981;28;20197;-74
2022/06/09 04:03:45;;;;;;;4.00;2.00;;;19.10;64.30;;;;;;5053891;28;20255;-74
2022/06/09 04:06:15;;;;;;;4.32;2.33;;;19.10;64.30;;;;;;5054993;28;20179;-74
2022/06/09 04:08:41;;;;;;;5.45;2.47;;;19.10;64.30;;;;;;5053339;28;20194;-76
2022/06/09 04:11:06;;;;;;;3.17;1.63;;;19.10;64.20;;;;;;5054179;28;20180;-75
2022/06/09 04:13:32;;;;;;;5.30;1.98;;;19.10;64.30;;;;;;5054593;28;20635;-75
2022/06/09 04:15:58;;;;;;;4.68;2.20;;;19.10;64.20;;;;;;5054176;28;20219;-74
2022/06/09 04:18:24;;;;;;;6.25;2.13;;;19.10;64.20;;;;;;5054200;28;20619;-74
2022/06/09 04:20:49;;;;;;;4.78;2.40;;;19.10;64.20;;;;;;5054235;28;20179;-74
2022/06/09 04:23:15;;;;;;;3.60;2.10;;;19.20;64.20;;;;;;5054729;28;20216;-74
2022/06/09 04:25:40;;;;;;;3.83;2.05;;;19.10;64.20;;;;;;5053588;28;20171;-75
2022/06/09 04:28:06;;;;;;;4.00;1.88;;;19.20;64.30;;;;;;5054468;28;20175;-75
2022/06/09 04:30:31;;;;;;;4.93;2.20;;;19.10;64.30;;;;;;5054036;28;20185;-75
2022/06/09 04:32:57;;;;;;;4.40;1.85;;;19.10;64.30;;;;;;5053486;28;20629;-73
2022/06/09 04:35:23;;;;;;;5.40;2.13;;;19.20;64.20;;;;;;5054448;28;20210;-74
2022/06/09 04:38:01;;;;;;;3.97;2.22;;;19.10;64.10;;;;;;5053412;28;20183;-74
2022/06/09 04:40:32;;;;;;;3.33;1.98;;;19.20;64.20;;;;;;5054177;28;20698;-74
2022/06/09 04:42:58;;;;;;;5.32;2.17;;;19.20;64.10;;;;;;5053840;28;20699;-74
2022/06/09 04:45:23;;;;;;;4.57;1.80;;;19.20;64.10;;;;;;5053681;28;20179;-75
2022/06/09 04:47:49;;;;;;;5.65;2.45;;;19.20;64.10;;;;;;5053904;28;20172;-76
2022/06/09 04:50:16;;;;;;;4.40;1.73;;;19.20;64.10;;;;;;5054352;28;20179;-76
2022/06/09 04:52:42;;;;;;;4.32;1.95;;;19.20;64.10;;;;;;5053080;28;20185;-75
2022/06/09 04:55:08;;;;;;;5.25;2.28;;;19.20;64.00;;;;;;5053725;28;20207;-75
2022/06/09 04:57:33;;;;;;;3.25;1.60;;;19.20;64.00;;;;;;5053822;28;20190;-74
2022/06/09 04:59:59;;;;;;;5.13;2.10;;;19.30;64.00;;;;;;5053010;28;20679;-73
2022/06/09 05:02:24;;;;;;;2.85;1.60;;;19.20;64.00;;;;;;5053828;28;20269;-73
2022/06/09 05:04:50;;;;;;;3.85;1.80;;;19.20;64.00;;;;;;5053576;28;20198;-73
2022/06/09 05:07:15;;;;;;;3.97;1.92;;;19.20;64.00;;;;;;5053162;28;20546;-74
2022/06/09 05:09:41;;;;;;;5.47;2.20;;;19.30;64.10;;;;;;5053569;28;20200;-75
2022/06/09 05:12:06;;;;;;;5.20;2.22;;;19.20;64.00;;;;;;5053438;28;20170;-75
2022/06/09 05:14:32;;;;;;;4.18;1.60;;;19.20;64.20;;;;;;5053158;28;20229;-74
2022/06/09 05:16:57;;;;;;;4.18;1.92;;;19.20;64.20;;;;;;5053644;28;20210;-74
2022/06/09 05:19:23;;;;;;;4.03;1.98;;;19.20;64.20;;;;;;5053524;28;20167;-75
2022/06/09 05:21:48;;;;;;;3.63;1.88;;;19.20;64.20;;;;;;5052325;28;20178;-74
2022/06/09 05:24:14;;;;;;;2.95;1.92;;;19.30;64.20;;;;;;5053257;28;20172;-75
2022/06/09 05:26:41;;;;;;;4.70;1.73;;;19.20;64.10;;;;;;5052996;28;20187;-74
2022/06/09 05:29:07;;;;;;;4.68;2.50;;;19.20;64.10;;;;;;5052404;28;20631;-74
2022/06/09 05:31:32;;;;;;;4.10;1.85;;;19.30;64.20;;;;;;5053418;28;20186;-73
2022/06/09 05:33:58;;;;;;;2.53;1.77;;;19.30;64.30;;;;;;5052222;28;20179;-74
2022/06/09 05:36:23;;;;;;;3.22;1.80;;;19.20;64.20;;;;;;5052945;28;20223;-75
2022/06/09 05:47:02;;;;;;;2.83;1.55;;;19.30;64.20;;;;;;5053017;28;20301;-75
2022/06/09 05:49:30;;;;;;;5.25;1.80;;;19.30;65.10;;;;;;5051972;28;20540;-76
2022/06/09 05:51:56;;;;;;;2.35;1.52;;;19.30;64.30;;;;;;5052363;28;20179;-76
2022/06/09 05:54:21;;;;;;;4.03;1.60;;;19.30;64.30;;;;;;5052811;28;20186;-75
2022/06/09 05:56:47;;;;;;;4.28;1.90;;;19.30;64.30;;;;;;5051835;28;20190;-73
2022/06/09 05:59:12;;;;;;;4.00;1.70;;;19.40;64.30;;;;;;5052917;28;20180;-73
2022/06/09 06:01:38;;;;;;;3.13;1.60;;;19.30;64.30;;;;;;5052471;28;20610;-72
2022/06/09 06:04:04;;;;;;;3.92;1.88;;;19.30;64.30;;;;;;5051772;28;20219;-72
2022/06/09 06:06:36;;;;;;;4.63;1.67;;;19.30;64.20;;;;;;5052542;28;20622;-74
2022/06/09 06:09:06;;;;;;;2.25;1.70;;;19.40;64.20;;;;;;5052622;28;20182;-74
2022/06/09 06:11:33;;;;;;;3.05;1.55;;;19.20;64.10;;;;;;5052391;28;20175;-75
2022/06/09 06:13:58;;;;;;;5.00;1.83;;;19.40;64.20;;;;;;5052165;28;20214;-74
2022/06/09 06:16:24;;;;;;;2.35;1.60;;;19.40;64.20;;;;;;5051372;28;20242;-74
2022/06/09 06:18:49;;;;;;;2.53;1.42;;;19.40;64.10;;;;;;5051931;28;20175;-74
2022/06/09 06:21:16;;;;;;;1.92;1.40;;;19.40;64.00;;;;;;5052393;28;20180;-74
2022/06/09 06:23:41;;;;;;;2.22;1.63;;;19.40;64.00;;;;;;5051265;28;20202;-74
2022/06/09 06:26:07;;;;;;;6.90;1.30;;;19.40;64.10;;;;;;5052188;28;20213;-74
2022/06/09 06:28:33;;;;;;;2.33;1.42;;;19.40;64.00;;;;;;5052285;28;20628;-74
2022/06/09 06:30:58;;;;;;;3.90;1.90;;;19.40;64.10;;;;;;5051105;28;20587;-73
2022/06/09 06:33:24;;;;;;;2.17;1.40;;;19.30;64.10;;;;;;5052104;28;20680;-73
2022/06/09 06:35:49;;;;;;;3.80;1.27;;;19.30;64.20;;;;;;5051723;28;20705;-73
2022/06/09 06:38:15;;;;;;;4.53;1.75;;;19.30;64.30;;;;;;5051407;28;20622;-73
2022/06/09 06:40:40;;;;;;;2.85;1.70;;;19.30;64.30;;;;;;5051731;28;20530;-73
2022/06/09 06:43:06;;;;;;;3.63;1.55;;;19.30;64.30;;;;;;5051926;28;20308;-74
2022/06/09 06:45:31;;;;;;;1.83;1.48;;;19.30;64.40;;;;;;5051224;28;20175;-75
2022/06/09 06:47:57;;;;;;;3.90;1.90;;;19.30;64.30;;;;;;5051747;28;20175;-75
2022/06/09 06:50:23;;;;;;;3.20;1.60;;;19.40;64.30;;;;;;5052123;28;20555;-76
2022/06/09 06:52:48;;;;;;;3.95;1.48;;;19.40;64.20;;;;;;5050712;28;20171;-75
2022/06/09 06:55:16;;;;;;;2.60;1.65;;;19.40;64.10;;;;;;5051961;28;20210;-75
2022/06/09 06:57:41;;;;;;;3.90;1.80;;;19.40;64.20;;;;;;5051553;28;20175;-71
2022/06/09 07:00:08;;;;;;;2.53;1.52;;;19.40;64.10;;;;;;5051033;28;20179;-76
2022/06/09 07:02:34;;;;;;;3.95;1.65;;;19.40;64.10;;;;;;5051836;28;20226;-74
2022/06/09 07:04:59;;;;;;;3.30;1.40;;;19.40;64.10;;;;;;5051872;28;20317;-72
2022/06/09 07:07:25;;;;;;;5.43;1.60;;;19.50;64.40;;;;;;5051212;28;20209;-71
2022/06/09 07:09:51;;;;;;;5.43;1.40;;;19.40;64.30;;;;;;5051452;28;20174;-71
2022/06/09 07:12:16;;;;;;;4.25;1.58;;;19.40;64.40;;;;;;5051725;28;20283;-70
2022/06/09 07:14:42;;;;;;;4.97;1.50;;;19.50;64.30;;;;;;5050444;28;20694;-70
2022/06/09 07:17:07;;;;;;;3.25;1.30;;;19.50;64.40;;;;;;5051589;28;20207;-70
2022/06/09 07:19:33;;;;;;;2.53;1.40;;;19.50;64.20;;;;;;5051204;28;20194;-71
2022/06/09 07:21:58;;;;;;;2.30;1.40;;;19.60;64.20;;;;;;5051510;28;20171;-68
2022/06/09 07:24:24;;;;;;;6.07;1.63;;;19.60;64.00;;;;;;5051530;28;20175;-68
2022/06/09 07:26:51;;;;;;;2.38;1.20;;;19.60;64.00;;;;;;5050418;28;20175;-70
2022/06/09 07:29:17;;;;;;;4.40;1.70;;;19.60;64.10;;;;;;5051472;28;20616;-72
2022/06/09 07:31:43;;;;;;;3.30;1.27;;;19.60;64.00;;;;;;5050899;28;20232;-73
2022/06/09 07:34:08;;;;;;;4.43;1.42;;;19.60;63.90;;;;;;5050931;28;20167;-73
2022/06/09 07:36:34;;;;;;;3.42;1.27;;;19.70;63.80;;;;;;5051350;28;20175;-71
2022/06/09 07:38:59;;;;;;;2.15;1.30;;;19.70;63.80;;;;;;5051287;28;20224;-71
2022/06/09 07:41:25;;;;;;;2.50;1.38;;;19.70;63.60;;;;;;5050740;28;20183;-72
2022/06/09 07:43:50;;;;;;;4.60;1.58;;;19.70;63.60;;;;;;5051096;28;20167;-71
2022/06/09 07:46:16;;;;;;;2.42;1.02;;;19.70;64.50;;;;;;5051191;28;20268;-72
2022/06/09 07:48:42;;;;;;;3.25;1.23;;;19.70;63.70;;;;;;5050555;28;20613;-72
2022/06/09 07:51:07;;;;;;;2.83;1.30;;;19.80;63.60;;;;;;5051395;28;20178;-72
2022/06/09 07:53:34;;;;;;;2.45;1.30;;;19.80;63.60;;;;;;5051252;28;20600;-72
2022/06/09 07:55:59;;;;;;;2.90;1.38;;;19.70;63.70;;;;;;5050382;28;20217;-72
2022/06/09 07:58:25;;;;;;;3.58;1.38;;;19.70;63.90;;;;;;5051173;28;20262;-71
2022/06/09 08:00:50;;;;;;;5.40;1.52;;;19.70;64.00;;;;;;5050885;28;20179;-71
2022/06/09 08:03:18;;;;;;;2.35;1.10;;;19.80;63.90;;;;;;5050430;28;20261;-72
2022/06/09 08:05:44;;;;;;;3.42;1.20;;;19.70;63.80;;;;;;5053527;28;20183;-73
2022/06/09 08:08:10;;;;;;;1.63;1.15;;;19.70;64.30;;;;;;5054921;28;20198;-72
2022/06/09 08:10:36;;;;;;;2.13;1.50;;;19.70;64.20;;;;;;5054052;28;20205;-71
2022/06/09 08:13:02;;;;;;;4.03;1.10;;;19.70;63.80;;;;;;5054554;28;20168;-70
2022/06/09 08:15:28;;;;;;;5.00;1.10;;;19.80;63.70;;;;;;5054254;28;20210;-70
2022/06/09 08:17:55;;;;;;;3.20;1.48;;;19.80;63.70;;;;;;5052604;28;20623;-70
2022/06/09 08:20:21;;;;;;;2.42;1.30;;;19.90;63.60;;;;;;5054597;28;20266;-69
2022/06/09 08:22:46;;;;;;;3.55;1.48;;;19.90;63.50;;;;;;5053627;28;20211;-70
2022/06/09 08:25:16;;;;;;;3.20;1.60;;;19.90;63.50;;;;;;5054622;28;20217;-70
2022/06/09 08:27:42;;;;;;;4.30;1.50;;;19.90;63.50;;;;;;5054106;28;20179;-72
2022/06/09 08:30:08;;;;;;;2.88;1.48;;;20.00;63.40;;;;;;5053835;28;20322;-73
2022/06/09 08:32:34;;;;;;;1.45;1.00;;;19.90;63.30;;;;;;5053543;28;20182;-72
2022/06/09 08:34:59;;;;;;;3.03;1.55;;;19.90;63.40;;;;;;5054226;28;20211;-73
2022/06/09 08:37:25;;;;;;;3.10;1.30;;;19.90;63.60;;;;;;5053782;28;20312;-71
2022/06/09 08:39:50;;;;;;;3.85;1.38;;;19.90;63.40;;;;;;5054160;28;20559;-72
2022/06/09 08:42:37;;;;;;;2.45;1.10;;;20.00;63.30;;;;;;5054090;28;20582;-72
2022/06/09 08:45:05;;;;;;;2.25;1.00;;;19.90;63.40;;;;;;5052355;28;20214;-71
2022/06/09 08:47:42;;;;;;;3.25;1.27;;;19.90;63.60;;;;;;5054257;28;20225;-72
2022/06/09 08:50:18;;;;;;;1.63;1.08;;;19.80;64.00;;;;;;5052950;28;20185;-70
2022/06/09 08:53:01;;;;;;;1.27;1.15;;;19.80;64.40;;;;;;5051818;28;20266;-68
2022/06/09 08:55:33;;;;;;;2.50;1.45;;;19.80;64.40;;;;;;5054092;28;20321;-71
2022/06/09 08:58:05;;;;;;;2.72;1.20;;;19.80;64.40;;;;;;5051800;28;20171;-70
2022/06/09 09:00:36;;;;;;;3.13;1.55;;;19.80;64.60;;;;;;5053671;28;20237;-71
2022/06/09 09:03:05;;;;;;;2.72;1.40;;;19.80;64.60;;;;;;5052517;28;20227;-71
2022/06/09 09:05:39;;;;;;;7.30;1.90;;;19.80;64.70;;;;;;5051879;28;20664;-70
2022/06/09 09:08:06;;;;;;;2.20;1.23;;;19.90;64.70;;;;;;5054039;28;20174;-69
2022/06/09 09:10:35;;;;;;;3.75;1.20;;;19.90;64.60;;;;;;5052839;28;20183;-68
2022/06/09 09:13:19;;;;;;;3.45;1.60;;;20.00;64.60;;;;;;5051713;28;20306;-68
2022/06/09 09:15:48;;;;;;;5.65;1.77;;;19.90;64.50;;;;;;5052762;28;20198;-69
2022/06/09 09:18:26;;;;;;;1.63;1.52;;;20.00;64.50;;;;;;5053469;28;20198;-67
2022/06/09 09:21:06;;;;;;;7.35;1.25;;;20.00;64.50;;;;;;5052761;28;20250;-67
2022/06/09 09:23:36;;;;;;;1.60;1.25;;;20.10;64.30;;;;;;5052471;28;20182;-68
2022/06/09 09:26:05;;;;;;;1.88;1.20;;;20.20;64.00;;;;;;5051491;28;20171;-68
2022/06/09 09:28:44;;;;;;;2.95;1.15;;;20.20;63.90;;;;;;5053274;28;20175;-68
2022/06/09 09:31:30;;;;;;;3.90;1.42;;;20.20;64.00;;;;;;5052094;28;20258;-69
2022/06/09 09:33:57;;;;;;;2.15;1.33;;;20.20;64.00;;;;;;5052288;28;20225;-70
2022/06/09 09:36:25;;;;;;;2.88;1.15;;;20.30;64.10;;;;;;5052968;28;20211;-73
2022/06/09 09:39:03;;;;;;;1.75;1.20;;;20.30;64.00;;;;;;5052498;28;20518;-73
2022/06/09 09:41:34;;;;;;;2.58;1.50;;;20.30;63.80;;;;;;5051709;28;20181;-74
2022/06/09 09:44:12;;;;;;;3.53;1.48;;;20.40;63.70;;;;;;5063935;28;20169;-75
2022/06/09 09:46:38;;;;;;;2.63;1.20;;;20.50;63.50;;;;;;5058680;28;20622;-75
2022/06/09 09:49:15;;;;;;;1.38;1.17;;;20.50;63.50;;;;;;5034274;28;20227;-74
2022/06/09 09:51:41;;;;;;;1.73;1.05;;;20.40;63.50;;;;;;5031415;28;20378;-75
2022/06/09 09:54:19;;;;;;;3.85;1.42;;;20.40;63.60;;;;;;5032854;28;20715;-75
2022/06/09 09:56:45;;;;;;;2.72;1.20;;;20.30;63.80;;;;;;5032654;28;20187;-74
2022/06/09 09:59:24;;;;;;;1.85;1.20;;;20.40;63.90;;;;;;5062917;28;20216;-74
2022/06/09 10:10:16;;;;;;;2.13;1.10;;;20.30;63.90;;;;;;5056985;28;20307;-74
2022/06/09 10:12:42;;;;;;;1.42;1.33;;;20.30;64.00;;;;;;5054394;28;20361;-73
2022/06/09 10:15:11;;;;;;;1.63;1.10;;;20.30;64.20;;;;;;5068620;28;20711;-73
2022/06/09 10:17:55;;;;;;;1.67;1.05;;;20.20;64.20;;;;;;5051181;28;20228;-72
2022/06/09 10:20:34;;;;;;;1.85;1.00;;;20.20;64.40;;;;;;5050724;28;20178;-71
2022/06/09 10:23:02;;;;;;;5.18;1.50;;;20.10;64.40;;;;;;5051472;28;20228;-72
2022/06/09 10:25:30;;;;;;;4.00;1.23;;;20.20;64.50;;;;;;5051468;28;20198;-73
2022/06/09 10:28:30;;;;;;;6.97;1.30;;;20.10;64.50;;;;;;5050331;28;20175;-69
2022/06/09 10:31:01;;;;;;;2.92;1.20;;;20.10;64.50;;;;;;5050273;28;20179;-70
2022/06/09 10:33:36;;;;;;;3.60;1.38;;;20.10;64.50;;;;;;5051259;28;20245;-69
2022/06/09 10:36:24;;;;;;;5.68;1.40;;;20.10;64.40;;;;;;5052630;28;20300;-72
2022/06/09 10:39:21;;;;;;;3.33;1.65;;;20.10;64.40;;;;;;5050925;28;20232;-71
2022/06/09 10:41:56;;;;;;;3.22;1.27;;;20.20;64.50;;;;;;5051730;28;20190;-70
2022/06/09 10:44:39;;;;;;;2.53;1.00;;;20.20;64.40;;;;;;5050223;28;20641;-70
2022/06/09 10:56:04;;;;;;;4.85;1.30;;;20.20;64.40;;;;;;5070311;28;20275;-71
2022/06/09 10:58:37;;;;;;;3.67;1.25;;;20.30;64.30;;;;;;5071883;28;20178;-70
2022/06/09 11:01:03;;;;;;;3.08;1.15;;;20.30;64.20;;;;;;5070732;28;20174;-70
2022/06/09 11:03:31;;;;;;;3.63;1.60;;;20.30;64.20;;;;;;5070648;28;20308;-69
2022/06/09 11:06:01;;;;;;;6.90;1.40;;;20.30;64.60;;;;;;5069556;28;20178;-69
2022/06/09 11:08:39;;;;;;;4.97;1.30;;;20.30;64.40;;;;;;5070401;28;20174;-67
2022/06/09 11:11:29;;;;;;;3.83;1.17;;;20.30;64.30;;;;;;5055352;28;20205;-66
2022/06/09 11:14:24;;;;;;;2.83;1.20;;;20.30;64.30;;;;;;5070819;28;20185;-66
2022/06/09 11:17:25;;;;;;;1.90;1.08;;;20.40;64.20;;;;;;5067410;28;20274;-67
2022/06/09 11:20:11;;;;;;;3.00;1.30;;;20.40;64.00;;;;;;5053880;28;20181;-68
2022/06/09 11:22:42;;;;;;;3.50;1.10;;;20.50;63.80;;;;;;5070025;28;20184;-66
2022/06/09 11:25:26;;;;;;;7.15;1.73;;;20.60;63.70;;;;;;5054291;28;20227;-71
2022/06/09 11:28:05;;;;;;;3.28;1.45;;;20.70;63.50;;;;;;5069438;28;20179;-73
2022/06/09 11:30:34;;;;;;;3.95;1.33;;;20.80;63.40;;;;;;5054582;28;20466;-74
2022/06/09 11:33:06;;;;;;;2.50;1.30;;;20.80;63.40;;;;;;5069530;28;20205;-74
2022/06/09 11:35:37;;;;;;;4.50;1.40;;;20.80;63.30;;;;;;5070354;28;20229;-75
2022/06/09 11:38:27;;;;;;;4.63;1.50;;;20.70;63.20;;;;;;5071319;28;20171;-74
2022/06/09 11:41:04;;;;;;;1.67;1.52;;;20.80;63.30;;;;;;5072050;28;20209;-74
2022/06/09 11:43:54;;;;;;;3.72;1.20;;;20.80;63.30;;;;;;5058345;28;20244;-74
2022/06/09 11:46:26;;;;;;;4.50;1.50;;;20.80;63.20;;;;;;5074020;28;20196;-74
2022/06/09 11:48:57;;;;;;;3.65;1.25;;;20.70;63.40;;;;;;5072965;28;20194;-73
2022/06/09 11:51:24;;;;;;;3.80;1.30;;;20.60;63.60;;;;;;5038086;28;20183;-73
2022/06/09 11:53:56;;;;;;;1.55;1.27;;;20.60;63.70;;;;;;5052941;28;20183;-73
2022/06/09 11:56:36;;;;;;;3.28;1.55;;;20.60;63.90;;;;;;5053663;28;20203;-74
2022/06/09 11:59:12;;;;;;;2.90;1.20;;;20.60;63.90;;;;;;5054853;28;20197;-74
2022/06/09 12:01:37;;;;;;;2.85;1.35;;;20.50;63.80;;;;;;5054106;28;20190;-75
2022/06/09 12:04:09;;;;;;;5.68;1.65;;;20.60;63.70;;;;;;5054552;28;20583;-74
2022/06/09 12:06:47;;;;;;;1.63;1.08;;;20.60;63.60;;;;;;5054773;28;20170;-74
2022/06/09 12:09:21;;;;;;;3.90;1.35;;;20.60;63.50;;;;;;5054375;28;20233;-74
2022/06/09 12:11:58;;;;;;;2.20;1.30;;;20.50;63.40;;;;;;5053451;28;20209;-74
2022/06/09 12:14:31;;;;;;;2.58;1.00;;;20.70;63.40;;;;;;5053748;28;20175;-73
2022/06/09 12:17:12;;;;;;;1.73;0.95;;;20.70;63.30;;;;;;5053712;28;20530;-73
2022/06/09 12:19:52;;;;;;;1.60;1.10;;;20.70;63.40;;;;;;5053371;28;20179;-73
2022/06/09 12:22:39;;;;;;;3.67;1.10;;;20.70;64.00;;;;;;5054096;28;20183;-72
2022/06/09 12:25:07;;;;;;;2.72;1.38;;;20.90;62.70;;;;;;5054859;28;20254;-74
2022/06/09 12:27:36;;;;;;;3.47;1.00;;;20.80;62.60;;;;;;5054483;28;20266;-74
2022/06/09 12:30:02;;;;;;;1.02;0.93;;;20.80;62.70;;;;;;5053987;28;20187;-74
2022/06/09 12:32:38;;;;;;;1.80;1.20;;;21.00;62.50;;;;;;5054630;28;20518;-74
2022/06/09 12:35:14;;;;;;;2.10;1.35;;;21.00;62.50;;;;;;5053439;28;20674;-74
2022/06/09 12:37:41;;;;;;;1.25;1.13;;;20.90;62.40;;;;;;5036846;28;20257;-74
2022/06/09 12:40:16;;;;;;;2.58;1.30;;;21.00;62.40;;;;;;5036877;28;20202;-74
2022/06/09 12:42:51;;;;;;;2.72;0.90;;;21.00;62.10;;;;;;5052665;28;20635;-72
2022/06/09 12:45:27;;;;;;;1.27;1.13;;;21.00;62.10;;;;;;5052433;28;20194;-75
2022/06/09 12:47:56;;;;;;;2.72;1.05;;;21.00;62.20;;;;;;5053655;28;20174;-74
2022/06/09 12:50:30;;;;;;;1.30;1.00;;;20.90;62.30;;;;;;5064350;28;20239;-73
2022/06/09 12:52:56;;;;;;;2.35;1.25;;;20.90;62.30;;;;;;5073655;28;20503;-75
2022/06/09 12:55:28;;;;;;;3.38;1.20;;;20.90;62.30;;;;;;5072830;28;20229;-74
2022/06/09 12:58:19;;;;;;;3.15;0.88;;;20.90;62.40;;;;;;5071651;28;20170;-74
2022/06/09 13:00:56;;;;;;;2.17;0.90;;;20.90;62.40;;;;;;5069387;28;20183;-74
2022/06/09 13:03:29;;;;;;;2.05;1.20;;;20.80;62.40;;;;;;5073381;28;20588;-74
2022/06/09 13:05:55;;;;;;;1.27;0.88;;;20.80;62.40;;;;;;5072877;28;20186;-73
2022/06/09 13:08:25;;;;;;;2.90;1.10;;;21.00;62.00;;;;;;5073588;28;20178;-75
2022/06/09 13:11:02;;;;;;;1.85;1.00;;;21.00;61.90;;;;;;5073585;28;20202;-73
2022/06/09 13:13:38;;;;;;;2.45;1.55;;;20.90;62.00;;;;;;5072646;28;20237;-74
2022/06/09 13:16:13;;;;;;;1.88;0.80;;;20.90;62.00;;;;;;5073260;28;20292;-72
2022/06/09 13:18:43;;;;;;;2.40;1.58;;;20.90;62.10;;;;;;5072749;28;20174;-72
2022/06/09 13:21:15;;;;;;;1.65;1.30;;;21.00;62.00;;;;;;5072041;28;20257;-73
2022/06/09 13:23:42;;;;;;;1.50;1.10;;;20.90;62.10;;;;;;5072928;28;20206;-73
2022/06/09 13:26:30;;;;;;;1.45;0.88;;;20.90;62.10;;;;;;5071522;28;20224;-73